sensor_id;sensor_type;location;lat;lon;timestamp;P1;durP1;ratioP1;P2;durP2;ratioP2
67063;SDS011;58476;48.072;11.970;2023-07-20T00:00:32;2.47;;;1.75;;
67063;SDS011;58476;48.072;11.970;2023-07-20T00:03:10;2.28;;;1.80;;
67063;SDS011;58476;48.072;11.970;2023-07-20T00:05:37;3.25;;;2.10;;
67063;SDS011;58476;48.072;11.970;2023-07-20T00:08:02;2.42;;;1.80;;
67063;SDS011;58476;48.072;11.970;2023-07-20T00:10:27;1.80;;;1.67;;
67063;SDS011;58476;48.072;11.970;2023-07-20T00:12:53;1.98;;;1.65;;
67063;SDS011;58476;48.072;11.970;2023-07-20T00:15:18;3.15;;;1.90;;
67063;SDS011;58476;48.072;11.970;2023-07-20T00:17:43;3.00;;;1.80;;
67063;SDS011;58476;48.072;11.970;2023-07-20T00:20:09;3.45;;;2.08;;
67063;SDS011;58476;48.072;11.970;2023-07-20T00:22:35;3.00;;;1.92;;
67063;SDS011;58476;48.072;11.970;2023-07-20T00:25:00;2.92;;;1.90;;
67063;SDS011;58476;48.072;11.970;2023-07-20T00:27:26;3.63;;;1.80;;
67063;SDS011;58476;48.072;11.970;2023-07-20T00:29:51;3.05;;;2.00;;
67063;SDS011;58476;48.072;11.970;2023-07-20T00:32:16;2.83;;;2.03;;
67063;SDS011;58476;48.072;11.970;2023-07-20T00:34:42;4.68;;;1.90;;
67063;SDS011;58476;48.072;11.970;2023-07-20T00:37:07;2.22;;;1.73;;
67063;SDS011;58476;48.072;11.970;2023-07-20T00:39:32;2.30;;;1.75;;
67063;SDS011;58476;48.072;11.970;2023-07-20T00:41:58;3.05;;;1.75;;
67063;SDS011;58476;48.072;11.970;2023-07-20T00:44:23;2.33;;;1.88;;
67063;SDS011;58476;48.072;11.970;2023-07-20T00:46:48;2.10;;;1.75;;
67063;SDS011;58476;48.072;11.970;2023-07-20T00:49:14;2.83;;;2.00;;
67063;SDS011;58476;48.072;11.970;2023-07-20T00:51:41;2.03;;;1.73;;
67063;SDS011;58476;48.072;11.970;2023-07-20T00:54:07;2.33;;;1.73;;
67063;SDS011;58476;48.072;11.970;2023-07-20T00:56:35;3.00;;;1.90;;
67063;SDS011;58476;48.072;11.970;2023-07-20T00:59:01;3.13;;;1.83;;
67063;SDS011;58476;48.072;11.970;2023-07-20T01:01:27;3.95;;;1.88;;
67063;SDS011;58476;48.072;11.970;2023-07-20T01:03:52;2.55;;;2.03;;
67063;SDS011;58476;48.072;11.970;2023-07-20T01:08:45;2.17;;;1.77;;
67063;SDS011;58476;48.072;11.970;2023-07-20T01:13:52;2.00;;;1.80;;
67063;SDS011;58476;48.072;11.970;2023-07-20T01:16:17;3.15;;;1.90;;
67063;SDS011;58476;48.072;11.970;2023-07-20T01:18:43;2.95;;;2.00;;
67063;SDS011;58476;48.072;11.970;2023-07-20T01:21:09;2.60;;;1.80;;
67063;SDS011;58476;48.072;11.970;2023-07-20T01:26:51;6.82;;;1.90;;
67063;SDS011;58476;48.072;11.970;2023-07-20T01:31:52;4.47;;;1.85;;
67063;SDS011;58476;48.072;11.970;2023-07-20T01:34:18;1.92;;;1.70;;
67063;SDS011;58476;48.072;11.970;2023-07-20T01:36:47;2.40;;;1.90;;
67063;SDS011;58476;48.072;11.970;2023-07-20T01:39:15;6.70;;;2.30;;
67063;SDS011;58476;48.072;11.970;2023-07-20T01:41:41;3.88;;;1.80;;
67063;SDS011;58476;48.072;11.970;2023-07-20T01:44:08;2.75;;;1.90;;
67063;SDS011;58476;48.072;11.970;2023-07-20T01:46:33;2.53;;;1.70;;
67063;SDS011;58476;48.072;11.970;2023-07-20T01:48:58;2.53;;;1.65;;
67063;SDS011;58476;48.072;11.970;2023-07-20T01:51:24;3.30;;;1.77;;
67063;SDS011;58476;48.072;11.970;2023-07-20T01:53:49;5.43;;;2.17;;
67063;SDS011;58476;48.072;11.970;2023-07-20T01:56:14;4.35;;;1.83;;
67063;SDS011;58476;48.072;11.970;2023-07-20T01:58:40;3.03;;;1.90;;
67063;SDS011;58476;48.072;11.970;2023-07-20T02:01:05;2.00;;;1.80;;
67063;SDS011;58476;48.072;11.970;2023-07-20T02:03:30;2.95;;;1.88;;
67063;SDS011;58476;48.072;11.970;2023-07-20T02:05:56;4.20;;;2.00;;
67063;SDS011;58476;48.072;11.970;2023-07-20T02:08:21;4.57;;;2.03;;
67063;SDS011;58476;48.072;11.970;2023-07-20T02:10:47;2.78;;;1.98;;
67063;SDS011;58476;48.072;11.970;2023-07-20T02:13:13;3.35;;;2.00;;
67063;SDS011;58476;48.072;11.970;2023-07-20T02:15:38;2.97;;;2.00;;
67063;SDS011;58476;48.072;11.970;2023-07-20T02:18:04;2.85;;;1.80;;
67063;SDS011;58476;48.072;11.970;2023-07-20T02:20:33;2.03;;;1.70;;
67063;SDS011;58476;48.072;11.970;2023-07-20T02:22:58;3.13;;;1.80;;
67063;SDS011;58476;48.072;11.970;2023-07-20T02:25:23;1.90;;;1.52;;
67063;SDS011;58476;48.072;11.970;2023-07-20T02:27:49;2.80;;;1.88;;
67063;SDS011;58476;48.072;11.970;2023-07-20T02:30:14;2.33;;;1.70;;
67063;SDS011;58476;48.072;11.970;2023-07-20T02:32:39;3.03;;;2.08;;
67063;SDS011;58476;48.072;11.970;2023-07-20T02:35:05;3.42;;;1.80;;
67063;SDS011;58476;48.072;11.970;2023-07-20T02:37:30;2.30;;;1.70;;
67063;SDS011;58476;48.072;11.970;2023-07-20T02:39:56;5.63;;;2.15;;
67063;SDS011;58476;48.072;11.970;2023-07-20T02:42:21;2.92;;;1.83;;
67063;SDS011;58476;48.072;11.970;2023-07-20T02:44:46;2.40;;;1.90;;
67063;SDS011;58476;48.072;11.970;2023-07-20T02:47:12;3.42;;;2.00;;
67063;SDS011;58476;48.072;11.970;2023-07-20T02:49:37;3.25;;;2.00;;
67063;SDS011;58476;48.072;11.970;2023-07-20T02:52:02;2.55;;;1.67;;
67063;SDS011;58476;48.072;11.970;2023-07-20T02:54:28;2.78;;;1.92;;
67063;SDS011;58476;48.072;11.970;2023-07-20T02:56:54;2.47;;;1.65;;
67063;SDS011;58476;48.072;11.970;2023-07-20T02:59:19;3.42;;;1.80;;
67063;SDS011;58476;48.072;11.970;2023-07-20T03:01:44;2.20;;;1.70;;
67063;SDS011;58476;48.072;11.970;2023-07-20T03:04:10;2.10;;;1.75;;
67063;SDS011;58476;48.072;11.970;2023-07-20T03:06:35;3.10;;;1.98;;
67063;SDS011;58476;48.072;11.970;2023-07-20T03:09:01;2.40;;;1.80;;
67063;SDS011;58476;48.072;11.970;2023-07-20T03:11:27;3.10;;;1.92;;
67063;SDS011;58476;48.072;11.970;2023-07-20T03:13:53;2.50;;;1.80;;
67063;SDS011;58476;48.072;11.970;2023-07-20T03:16:18;5.18;;;2.00;;
67063;SDS011;58476;48.072;11.970;2023-07-20T03:18:45;2.80;;;1.75;;
67063;SDS011;58476;48.072;11.970;2023-07-20T03:21:10;2.92;;;1.60;;
67063;SDS011;58476;48.072;11.970;2023-07-20T03:23:36;4.85;;;1.70;;
67063;SDS011;58476;48.072;11.970;2023-07-20T03:26:02;2.53;;;1.80;;
67063;SDS011;58476;48.072;11.970;2023-07-20T03:28:27;2.08;;;1.60;;
67063;SDS011;58476;48.072;11.970;2023-07-20T03:30:53;1.83;;;1.60;;
67063;SDS011;58476;48.072;11.970;2023-07-20T03:33:19;2.78;;;1.80;;
67063;SDS011;58476;48.072;11.970;2023-07-20T03:35:45;3.50;;;1.77;;
67063;SDS011;58476;48.072;11.970;2023-07-20T03:38:10;2.20;;;1.77;;
67063;SDS011;58476;48.072;11.970;2023-07-20T03:40:36;4.20;;;1.80;;
67063;SDS011;58476;48.072;11.970;2023-07-20T03:43:01;4.22;;;1.75;;
67063;SDS011;58476;48.072;11.970;2023-07-20T03:45:26;2.20;;;1.55;;
67063;SDS011;58476;48.072;11.970;2023-07-20T03:47:52;2.63;;;1.77;;
67063;SDS011;58476;48.072;11.970;2023-07-20T03:50:17;2.83;;;1.83;;
67063;SDS011;58476;48.072;11.970;2023-07-20T03:52:42;3.20;;;1.60;;
67063;SDS011;58476;48.072;11.970;2023-07-20T03:55:08;2.13;;;1.65;;
67063;SDS011;58476;48.072;11.970;2023-07-20T03:57:33;3.33;;;1.60;;
67063;SDS011;58476;48.072;11.970;2023-07-20T03:59:59;4.55;;;1.67;;
67063;SDS011;58476;48.072;11.970;2023-07-20T04:02:24;2.03;;;1.50;;
67063;SDS011;58476;48.072;11.970;2023-07-20T04:04:49;2.90;;;1.77;;
67063;SDS011;58476;48.072;11.970;2023-07-20T04:07:15;2.05;;;1.50;;
67063;SDS011;58476;48.072;11.970;2023-07-20T04:09:41;3.67;;;1.80;;
67063;SDS011;58476;48.072;11.970;2023-07-20T04:12:06;4.45;;;1.83;;
67063;SDS011;58476;48.072;11.970;2023-07-20T04:14:32;7.20;;;1.73;;
67063;SDS011;58476;48.072;11.970;2023-07-20T04:16:57;4.65;;;1.52;;
67063;SDS011;58476;48.072;11.970;2023-07-20T04:19:23;6.78;;;1.80;;
67063;SDS011;58476;48.072;11.970;2023-07-20T04:21:48;4.88;;;1.70;;
67063;SDS011;58476;48.072;11.970;2023-07-20T04:24:14;3.25;;;1.58;;
67063;SDS011;58476;48.072;11.970;2023-07-20T04:26:39;3.35;;;1.27;;
67063;SDS011;58476;48.072;11.970;2023-07-20T04:29:04;3.63;;;1.60;;
67063;SDS011;58476;48.072;11.970;2023-07-20T04:31:33;3.78;;;1.60;;
67063;SDS011;58476;48.072;11.970;2023-07-20T04:33:59;4.47;;;1.60;;
67063;SDS011;58476;48.072;11.970;2023-07-20T04:36:24;5.38;;;1.67;;
67063;SDS011;58476;48.072;11.970;2023-07-20T04:38:50;3.55;;;1.60;;
67063;SDS011;58476;48.072;11.970;2023-07-20T04:41:18;7.55;;;1.95;;
67063;SDS011;58476;48.072;11.970;2023-07-20T04:43:46;4.70;;;1.60;;
67063;SDS011;58476;48.072;11.970;2023-07-20T04:46:14;2.45;;;1.52;;
67063;SDS011;58476;48.072;11.970;2023-07-20T04:48:41;2.17;;;1.60;;
67063;SDS011;58476;48.072;11.970;2023-07-20T04:51:07;4.78;;;1.50;;
67063;SDS011;58476;48.072;11.970;2023-07-20T04:53:32;11.15;;;1.73;;
67063;SDS011;58476;48.072;11.970;2023-07-20T04:55:58;8.43;;;1.50;;
67063;SDS011;58476;48.072;11.970;2023-07-20T04:58:24;3.60;;;2.33;;
67063;SDS011;58476;48.072;11.970;2023-07-20T05:00:51;4.18;;;1.40;;
67063;SDS011;58476;48.072;11.970;2023-07-20T05:03:17;2.03;;;1.50;;
67063;SDS011;58476;48.072;11.970;2023-07-20T05:05:43;2.80;;;1.50;;
67063;SDS011;58476;48.072;11.970;2023-07-20T05:08:09;4.57;;;1.55;;
67063;SDS011;58476;48.072;11.970;2023-07-20T05:10:34;1.83;;;1.42;;
67063;SDS011;58476;48.072;11.970;2023-07-20T05:13:00;3.15;;;1.40;;
67063;SDS011;58476;48.072;11.970;2023-07-20T05:15:25;3.22;;;1.50;;
67063;SDS011;58476;48.072;11.970;2023-07-20T05:17:52;2.00;;;1.40;;
67063;SDS011;58476;48.072;11.970;2023-07-20T05:20:19;3.75;;;1.40;;
67063;SDS011;58476;48.072;11.970;2023-07-20T05:22:44;3.08;;;1.63;;
67063;SDS011;58476;48.072;11.970;2023-07-20T05:25:10;5.13;;;1.60;;
67063;SDS011;58476;48.072;11.970;2023-07-20T05:27:36;5.93;;;1.50;;
67063;SDS011;58476;48.072;11.970;2023-07-20T05:30:03;2.80;;;1.40;;
67063;SDS011;58476;48.072;11.970;2023-07-20T05:32:29;3.83;;;1.42;;
67063;SDS011;58476;48.072;11.970;2023-07-20T05:34:54;11.88;;;1.83;;
67063;SDS011;58476;48.072;11.970;2023-07-20T05:37:20;4.55;;;1.60;;
67063;SDS011;58476;48.072;11.970;2023-07-20T05:39:45;8.48;;;1.83;;
67063;SDS011;58476;48.072;11.970;2023-07-20T05:42:10;15.93;;;2.90;;
67063;SDS011;58476;48.072;11.970;2023-07-20T05:44:36;15.50;;;3.05;;
67063;SDS011;58476;48.072;11.970;2023-07-20T05:47:01;24.85;;;4.18;;
67063;SDS011;58476;48.072;11.970;2023-07-20T05:49:27;19.65;;;4.07;;
67063;SDS011;58476;48.072;11.970;2023-07-20T05:51:52;16.83;;;2.95;;
67063;SDS011;58476;48.072;11.970;2023-07-20T05:54:17;13.48;;;2.63;;
67063;SDS011;58476;48.072;11.970;2023-07-20T05:56:43;10.23;;;2.58;;
67063;SDS011;58476;48.072;11.970;2023-07-20T05:59:08;11.20;;;2.38;;
67063;SDS011;58476;48.072;11.970;2023-07-20T06:01:33;8.52;;;2.20;;
67063;SDS011;58476;48.072;11.970;2023-07-20T06:03:59;5.95;;;2.10;;
67063;SDS011;58476;48.072;11.970;2023-07-20T06:06:24;11.15;;;2.30;;
67063;SDS011;58476;48.072;11.970;2023-07-20T06:08:49;9.35;;;2.20;;
67063;SDS011;58476;48.072;11.970;2023-07-20T06:11:15;8.57;;;2.25;;
67063;SDS011;58476;48.072;11.970;2023-07-20T06:13:40;6.60;;;2.00;;
67063;SDS011;58476;48.072;11.970;2023-07-20T06:16:05;10.07;;;1.98;;
67063;SDS011;58476;48.072;11.970;2023-07-20T06:18:31;7.18;;;1.80;;
67063;SDS011;58476;48.072;11.970;2023-07-20T06:20:56;6.22;;;1.73;;
67063;SDS011;58476;48.072;11.970;2023-07-20T06:23:22;4.70;;;1.80;;
67063;SDS011;58476;48.072;11.970;2023-07-20T06:25:47;4.90;;;1.80;;
67063;SDS011;58476;48.072;11.970;2023-07-20T06:28:13;4.78;;;1.55;;
67063;SDS011;58476;48.072;11.970;2023-07-20T06:30:38;5.88;;;1.80;;
67063;SDS011;58476;48.072;11.970;2023-07-20T06:33:04;4.13;;;1.60;;
67063;SDS011;58476;48.072;11.970;2023-07-20T06:35:29;3.00;;;1.42;;
67063;SDS011;58476;48.072;11.970;2023-07-20T06:37:54;4.57;;;1.50;;
67063;SDS011;58476;48.072;11.970;2023-07-20T06:40:20;2.70;;;1.60;;
67063;SDS011;58476;48.072;11.970;2023-07-20T06:42:46;2.72;;;1.60;;
67063;SDS011;58476;48.072;11.970;2023-07-20T06:45:12;4.65;;;1.63;;
67063;SDS011;58476;48.072;11.970;2023-07-20T06:47:38;3.72;;;1.63;;
67063;SDS011;58476;48.072;11.970;2023-07-20T06:50:04;3.60;;;1.40;;
67063;SDS011;58476;48.072;11.970;2023-07-20T06:52:29;2.00;;;1.60;;
67063;SDS011;58476;48.072;11.970;2023-07-20T06:54:55;3.22;;;1.50;;
67063;SDS011;58476;48.072;11.970;2023-07-20T06:57:20;4.55;;;1.50;;
67063;SDS011;58476;48.072;11.970;2023-07-20T06:59:46;2.50;;;1.60;;
67063;SDS011;58476;48.072;11.970;2023-07-20T07:02:11;2.85;;;1.75;;
67063;SDS011;58476;48.072;11.970;2023-07-20T07:04:36;5.78;;;1.70;;
67063;SDS011;58476;48.072;11.970;2023-07-20T07:07:02;2.80;;;1.70;;
67063;SDS011;58476;48.072;11.970;2023-07-20T07:09:27;4.63;;;1.58;;
67063;SDS011;58476;48.072;11.970;2023-07-20T07:11:52;6.75;;;1.80;;
67063;SDS011;58476;48.072;11.970;2023-07-20T07:14:18;3.15;;;1.70;;
67063;SDS011;58476;48.072;11.970;2023-07-20T07:16:43;2.47;;;1.73;;
67063;SDS011;58476;48.072;11.970;2023-07-20T07:19:08;3.92;;;1.95;;
67063;SDS011;58476;48.072;11.970;2023-07-20T07:21:34;4.38;;;1.85;;
67063;SDS011;58476;48.072;11.970;2023-07-20T07:23:59;2.85;;;1.63;;
67063;SDS011;58476;48.072;11.970;2023-07-20T07:26:24;1.85;;;1.58;;
67063;SDS011;58476;48.072;11.970;2023-07-20T07:28:50;4.88;;;1.95;;
67063;SDS011;58476;48.072;11.970;2023-07-20T07:31:15;3.00;;;1.88;;
67063;SDS011;58476;48.072;11.970;2023-07-20T07:33:41;5.43;;;1.80;;
67063;SDS011;58476;48.072;11.970;2023-07-20T07:36:06;1.85;;;1.45;;
67063;SDS011;58476;48.072;11.970;2023-07-20T07:38:31;4.97;;;1.75;;
67063;SDS011;58476;48.072;11.970;2023-07-20T07:40:57;3.22;;;1.80;;
67063;SDS011;58476;48.072;11.970;2023-07-20T07:43:24;2.28;;;1.73;;
67063;SDS011;58476;48.072;11.970;2023-07-20T07:45:49;4.00;;;1.85;;
67063;SDS011;58476;48.072;11.970;2023-07-20T07:48:14;4.18;;;2.00;;
67063;SDS011;58476;48.072;11.970;2023-07-20T07:50:40;3.08;;;1.80;;
67063;SDS011;58476;48.072;11.970;2023-07-20T07:53:05;3.42;;;1.80;;
67063;SDS011;58476;48.072;11.970;2023-07-20T07:55:32;2.55;;;1.60;;
67063;SDS011;58476;48.072;11.970;2023-07-20T07:57:57;2.15;;;1.55;;
67063;SDS011;58476;48.072;11.970;2023-07-20T08:00:22;4.20;;;1.60;;
67063;SDS011;58476;48.072;11.970;2023-07-20T08:02:49;4.40;;;1.90;;
67063;SDS011;58476;48.072;11.970;2023-07-20T08:05:15;4.38;;;1.70;;
67063;SDS011;58476;48.072;11.970;2023-07-20T08:07:40;3.30;;;1.75;;
67063;SDS011;58476;48.072;11.970;2023-07-20T08:10:06;4.32;;;1.58;;
67063;SDS011;58476;48.072;11.970;2023-07-20T08:12:32;3.10;;;1.73;;
67063;SDS011;58476;48.072;11.970;2023-07-20T08:14:57;5.28;;;1.90;;
67063;SDS011;58476;48.072;11.970;2023-07-20T08:17:22;3.88;;;1.50;;
67063;SDS011;58476;48.072;11.970;2023-07-20T08:19:48;10.05;;;1.73;;
67063;SDS011;58476;48.072;11.970;2023-07-20T08:22:13;2.45;;;1.48;;
67063;SDS011;58476;48.072;11.970;2023-07-20T08:24:39;2.10;;;1.40;;
67063;SDS011;58476;48.072;11.970;2023-07-20T08:27:05;5.05;;;1.90;;
67063;SDS011;58476;48.072;11.970;2023-07-20T08:29:31;2.28;;;1.60;;
67063;SDS011;58476;48.072;11.970;2023-07-20T08:31:56;3.83;;;1.77;;
67063;SDS011;58476;48.072;11.970;2023-07-20T08:34:21;5.00;;;1.55;;
67063;SDS011;58476;48.072;11.970;2023-07-20T08:36:47;3.78;;;1.65;;
67063;SDS011;58476;48.072;11.970;2023-07-20T08:39:12;3.30;;;1.83;;
67063;SDS011;58476;48.072;11.970;2023-07-20T08:41:37;3.42;;;1.90;;
67063;SDS011;58476;48.072;11.970;2023-07-20T08:44:03;5.15;;;1.80;;
67063;SDS011;58476;48.072;11.970;2023-07-20T08:46:29;4.50;;;1.90;;
67063;SDS011;58476;48.072;11.970;2023-07-20T08:48:54;4.80;;;1.90;;
67063;SDS011;58476;48.072;11.970;2023-07-20T08:51:21;3.28;;;1.80;;
67063;SDS011;58476;48.072;11.970;2023-07-20T08:53:47;3.00;;;1.73;;
67063;SDS011;58476;48.072;11.970;2023-07-20T08:56:15;2.63;;;1.90;;
67063;SDS011;58476;48.072;11.970;2023-07-20T08:58:43;3.92;;;1.90;;
67063;SDS011;58476;48.072;11.970;2023-07-20T09:01:08;1.83;;;1.45;;
67063;SDS011;58476;48.072;11.970;2023-07-20T09:03:35;2.50;;;1.63;;
67063;SDS011;58476;48.072;11.970;2023-07-20T09:06:00;4.53;;;1.80;;
67063;SDS011;58476;48.072;11.970;2023-07-20T09:08:26;3.88;;;1.80;;
67063;SDS011;58476;48.072;11.970;2023-07-20T09:10:51;3.05;;;1.65;;
67063;SDS011;58476;48.072;11.970;2023-07-20T09:13:16;4.32;;;1.90;;
67063;SDS011;58476;48.072;11.970;2023-07-20T09:15:52;3.50;;;2.15;;
67063;SDS011;58476;48.072;11.970;2023-07-20T09:18:28;4.43;;;1.80;;
67063;SDS011;58476;48.072;11.970;2023-07-20T09:21:01;4.32;;;1.98;;
67063;SDS011;58476;48.072;11.970;2023-07-20T09:23:34;2.42;;;1.70;;
67063;SDS011;58476;48.072;11.970;2023-07-20T09:26:01;2.70;;;1.80;;
67063;SDS011;58476;48.072;11.970;2023-07-20T09:28:49;3.53;;;1.77;;
67063;SDS011;58476;48.072;11.970;2023-07-20T09:31:17;4.07;;;1.70;;
67063;SDS011;58476;48.072;11.970;2023-07-20T09:33:43;3.55;;;1.92;;
67063;SDS011;58476;48.072;11.970;2023-07-20T09:36:09;4.07;;;2.00;;
67063;SDS011;58476;48.072;11.970;2023-07-20T09:38:35;2.70;;;1.95;;
67063;SDS011;58476;48.072;11.970;2023-07-20T09:41:01;3.70;;;2.08;;
67063;SDS011;58476;48.072;11.970;2023-07-20T09:43:28;4.65;;;1.90;;
67063;SDS011;58476;48.072;11.970;2023-07-20T09:45:57;6.85;;;1.90;;
67063;SDS011;58476;48.072;11.970;2023-07-20T09:48:23;5.40;;;2.05;;
67063;SDS011;58476;48.072;11.970;2023-07-20T09:50:49;2.88;;;1.80;;
67063;SDS011;58476;48.072;11.970;2023-07-20T09:53:16;2.50;;;1.80;;
67063;SDS011;58476;48.072;11.970;2023-07-20T09:55:43;3.75;;;2.17;;
67063;SDS011;58476;48.072;11.970;2023-07-20T09:58:09;2.85;;;1.98;;
67063;SDS011;58476;48.072;11.970;2023-07-20T10:00:38;3.40;;;1.90;;
67063;SDS011;58476;48.072;11.970;2023-07-20T10:03:04;3.38;;;1.85;;
67063;SDS011;58476;48.072;11.970;2023-07-20T10:05:34;4.05;;;1.85;;
67063;SDS011;58476;48.072;11.970;2023-07-20T10:08:03;4.65;;;1.90;;
67063;SDS011;58476;48.072;11.970;2023-07-20T10:10:29;4.90;;;1.80;;
67063;SDS011;58476;48.072;11.970;2023-07-20T10:12:56;4.13;;;2.20;;
67063;SDS011;58476;48.072;11.970;2023-07-20T10:15:30;3.20;;;1.80;;
67063;SDS011;58476;48.072;11.970;2023-07-20T10:20:25;2.80;;;1.60;;
67063;SDS011;58476;48.072;11.970;2023-07-20T10:22:53;4.80;;;1.95;;
67063;SDS011;58476;48.072;11.970;2023-07-20T10:25:19;4.03;;;2.08;;
67063;SDS011;58476;48.072;11.970;2023-07-20T10:27:48;3.35;;;1.85;;
67063;SDS011;58476;48.072;11.970;2023-07-20T10:30:14;8.68;;;2.03;;
67063;SDS011;58476;48.072;11.970;2023-07-20T10:32:40;25.23;;;13.45;;
67063;SDS011;58476;48.072;11.970;2023-07-20T10:35:16;131.45;;;78.13;;
67063;SDS011;58476;48.072;11.970;2023-07-20T10:42:50;219.63;;;114.22;;
67063;SDS011;58476;48.072;11.970;2023-07-20T10:45:18;66.03;;;35.55;;
67063;SDS011;58476;48.072;11.970;2023-07-20T10:47:47;37.00;;;20.83;;
67063;SDS011;58476;48.072;11.970;2023-07-20T10:50:12;21.30;;;12.15;;
67063;SDS011;58476;48.072;11.970;2023-07-20T10:52:38;9.13;;;5.03;;
67063;SDS011;58476;48.072;11.970;2023-07-20T10:55:14;7.90;;;3.78;;
67063;SDS011;58476;48.072;11.970;2023-07-20T10:57:40;5.07;;;2.50;;
67063;SDS011;58476;48.072;11.970;2023-07-20T11:00:10;5.43;;;2.60;;
67063;SDS011;58476;48.072;11.970;2023-07-20T11:05:26;3.38;;;1.92;;
67063;SDS011;58476;48.072;11.970;2023-07-20T11:08:03;4.90;;;2.03;;
67063;SDS011;58476;48.072;11.970;2023-07-20T11:10:29;3.20;;;2.30;;
67063;SDS011;58476;48.072;11.970;2023-07-20T11:15:46;4.15;;;2.10;;
67063;SDS011;58476;48.072;11.970;2023-07-20T11:18:27;2.90;;;2.00;;
67063;SDS011;58476;48.072;11.970;2023-07-20T11:20:53;2.67;;;1.98;;
67063;SDS011;58476;48.072;11.970;2023-07-20T11:23:21;3.20;;;1.77;;
67063;SDS011;58476;48.072;11.970;2023-07-20T11:25:47;3.40;;;1.88;;
67063;SDS011;58476;48.072;11.970;2023-07-20T11:28:13;5.25;;;2.22;;
67063;SDS011;58476;48.072;11.970;2023-07-20T11:30:38;8.93;;;5.10;;
67063;SDS011;58476;48.072;11.970;2023-07-20T11:33:04;4.18;;;2.78;;
67063;SDS011;58476;48.072;11.970;2023-07-20T11:35:36;4.90;;;2.22;;
67063;SDS011;58476;48.072;11.970;2023-07-20T11:38:08;3.13;;;2.20;;
67063;SDS011;58476;48.072;11.970;2023-07-20T11:40:33;3.35;;;2.00;;
67063;SDS011;58476;48.072;11.970;2023-07-20T11:42:58;2.92;;;1.95;;
67063;SDS011;58476;48.072;11.970;2023-07-20T11:45:24;3.10;;;1.92;;
67063;SDS011;58476;48.072;11.970;2023-07-20T11:47:50;3.17;;;1.77;;
67063;SDS011;58476;48.072;11.970;2023-07-20T11:50:15;3.63;;;1.80;;
67063;SDS011;58476;48.072;11.970;2023-07-20T11:52:41;3.85;;;1.80;;
67063;SDS011;58476;48.072;11.970;2023-07-20T11:55:06;3.53;;;1.70;;
67063;SDS011;58476;48.072;11.970;2023-07-20T11:57:32;3.83;;;1.85;;
67063;SDS011;58476;48.072;11.970;2023-07-20T12:00:00;3.35;;;1.60;;
67063;SDS011;58476;48.072;11.970;2023-07-20T12:02:30;4.05;;;1.85;;
67063;SDS011;58476;48.072;11.970;2023-07-20T12:04:56;6.70;;;2.05;;
67063;SDS011;58476;48.072;11.970;2023-07-20T12:07:22;6.90;;;2.15;;
67063;SDS011;58476;48.072;11.970;2023-07-20T12:10:07;3.30;;;1.80;;
67063;SDS011;58476;48.072;11.970;2023-07-20T12:12:34;2.15;;;1.70;;
67063;SDS011;58476;48.072;11.970;2023-07-20T12:15:21;3.55;;;1.90;;
67063;SDS011;58476;48.072;11.970;2023-07-20T12:17:52;5.28;;;1.80;;
67063;SDS011;58476;48.072;11.970;2023-07-20T12:23:13;4.60;;;1.83;;
67063;SDS011;58476;48.072;11.970;2023-07-20T12:28:09;3.22;;;1.77;;
67063;SDS011;58476;48.072;11.970;2023-07-20T12:30:39;5.70;;;1.90;;
67063;SDS011;58476;48.072;11.970;2023-07-20T12:33:05;5.35;;;1.90;;
67063;SDS011;58476;48.072;11.970;2023-07-20T12:35:31;4.55;;;2.03;;
67063;SDS011;58476;48.072;11.970;2023-07-20T12:37:57;4.47;;;2.13;;
67063;SDS011;58476;48.072;11.970;2023-07-20T12:40:23;2.70;;;1.98;;
67063;SDS011;58476;48.072;11.970;2023-07-20T12:42:48;3.63;;;1.77;;
67063;SDS011;58476;48.072;11.970;2023-07-20T12:45:14;3.80;;;1.83;;
67063;SDS011;58476;48.072;11.970;2023-07-20T12:47:40;6.85;;;2.10;;
67063;SDS011;58476;48.072;11.970;2023-07-20T12:50:06;2.67;;;1.80;;
67063;SDS011;58476;48.072;11.970;2023-07-20T12:52:32;3.40;;;2.00;;
67063;SDS011;58476;48.072;11.970;2023-07-20T12:55:01;2.95;;;1.85;;
67063;SDS011;58476;48.072;11.970;2023-07-20T12:57:27;3.95;;;2.20;;
67063;SDS011;58476;48.072;11.970;2023-07-20T12:59:52;3.30;;;1.83;;
67063;SDS011;58476;48.072;11.970;2023-07-20T13:02:17;4.00;;;1.90;;
67063;SDS011;58476;48.072;11.970;2023-07-20T13:04:43;2.72;;;2.00;;
67063;SDS011;58476;48.072;11.970;2023-07-20T13:07:09;3.95;;;1.92;;
67063;SDS011;58476;48.072;11.970;2023-07-20T13:09:38;5.45;;;2.15;;
67063;SDS011;58476;48.072;11.970;2023-07-20T13:12:03;4.65;;;1.98;;
67063;SDS011;58476;48.072;11.970;2023-07-20T13:14:28;10.25;;;2.20;;
67063;SDS011;58476;48.072;11.970;2023-07-20T13:16:54;3.90;;;1.80;;
67063;SDS011;58476;48.072;11.970;2023-07-20T13:19:20;6.03;;;1.92;;
67063;SDS011;58476;48.072;11.970;2023-07-20T13:21:45;6.28;;;1.90;;
67063;SDS011;58476;48.072;11.970;2023-07-20T13:24:11;5.20;;;1.85;;
67063;SDS011;58476;48.072;11.970;2023-07-20T13:26:36;2.38;;;1.60;;
67063;SDS011;58476;48.072;11.970;2023-07-20T13:29:01;3.42;;;1.90;;
67063;SDS011;58476;48.072;11.970;2023-07-20T13:31:27;5.00;;;1.88;;
67063;SDS011;58476;48.072;11.970;2023-07-20T13:33:52;3.97;;;1.73;;
67063;SDS011;58476;48.072;11.970;2023-07-20T13:36:17;2.60;;;1.65;;
67063;SDS011;58476;48.072;11.970;2023-07-20T13:38:43;3.22;;;1.95;;
67063;SDS011;58476;48.072;11.970;2023-07-20T13:41:08;5.97;;;1.77;;
67063;SDS011;58476;48.072;11.970;2023-07-20T13:43:33;7.82;;;1.98;;
67063;SDS011;58476;48.072;11.970;2023-07-20T13:45:59;5.25;;;1.90;;
67063;SDS011;58476;48.072;11.970;2023-07-20T13:48:24;5.20;;;1.90;;
67063;SDS011;58476;48.072;11.970;2023-07-20T13:50:50;6.38;;;1.73;;
67063;SDS011;58476;48.072;11.970;2023-07-20T13:53:15;3.13;;;1.80;;
67063;SDS011;58476;48.072;11.970;2023-07-20T13:55:40;3.72;;;1.90;;
67063;SDS011;58476;48.072;11.970;2023-07-20T13:58:06;3.05;;;1.70;;
67063;SDS011;58476;48.072;11.970;2023-07-20T14:00:31;6.50;;;2.00;;
67063;SDS011;58476;48.072;11.970;2023-07-20T14:02:56;3.75;;;1.83;;
67063;SDS011;58476;48.072;11.970;2023-07-20T14:05:22;6.63;;;1.80;;
67063;SDS011;58476;48.072;11.970;2023-07-20T14:07:47;3.15;;;1.75;;
67063;SDS011;58476;48.072;11.970;2023-07-20T14:10:12;4.78;;;1.98;;
67063;SDS011;58476;48.072;11.970;2023-07-20T14:12:38;2.95;;;1.70;;
67063;SDS011;58476;48.072;11.970;2023-07-20T14:15:03;1.60;;;1.50;;
67063;SDS011;58476;48.072;11.970;2023-07-20T14:17:29;3.70;;;1.77;;
67063;SDS011;58476;48.072;11.970;2023-07-20T14:19:54;3.10;;;1.60;;
67063;SDS011;58476;48.072;11.970;2023-07-20T14:22:20;2.33;;;1.55;;
67063;SDS011;58476;48.072;11.970;2023-07-20T14:24:45;4.90;;;1.67;;
67063;SDS011;58476;48.072;11.970;2023-07-20T14:27:10;3.00;;;1.58;;
67063;SDS011;58476;48.072;11.970;2023-07-20T14:29:36;2.53;;;1.50;;
67063;SDS011;58476;48.072;11.970;2023-07-20T14:32:01;3.92;;;1.58;;
67063;SDS011;58476;48.072;11.970;2023-07-20T14:34:27;2.72;;;1.90;;
67063;SDS011;58476;48.072;11.970;2023-07-20T14:36:52;4.53;;;1.75;;
67063;SDS011;58476;48.072;11.970;2023-07-20T14:39:17;4.47;;;1.70;;
67063;SDS011;58476;48.072;11.970;2023-07-20T14:41:43;5.65;;;1.55;;
67063;SDS011;58476;48.072;11.970;2023-07-20T14:44:08;2.47;;;1.77;;
67063;SDS011;58476;48.072;11.970;2023-07-20T14:46:33;10.50;;;1.95;;
67063;SDS011;58476;48.072;11.970;2023-07-20T14:48:59;12.63;;;1.80;;
67063;SDS011;58476;48.072;11.970;2023-07-20T14:51:24;7.20;;;2.05;;
67063;SDS011;58476;48.072;11.970;2023-07-20T14:53:49;7.88;;;1.85;;
67063;SDS011;58476;48.072;11.970;2023-07-20T14:56:15;11.38;;;1.95;;